createdAt,value
2023-01-11T00:00:56.901Z,5.14
2023-01-11T00:03:24.859Z,5.31
2023-01-11T00:05:57.397Z,5.35
2023-01-11T00:08:25.825Z,5.17
2023-01-11T00:10:54.224Z,5.26
2023-01-11T00:13:22.299Z,5.21
2023-01-11T00:15:50.413Z,5.25
2023-01-11T00:18:18.387Z,5.06
2023-01-11T00:20:46.715Z,5.16
2023-01-11T00:23:15.981Z,5.24
2023-01-11T00:25:43.844Z,5.13
2023-01-11T00:28:11.982Z,5.20
2023-01-11T00:30:40.168Z,5.09
2023-01-11T00:33:08.170Z,5.16
2023-01-11T00:35:36.090Z,5.01
2023-01-11T00:38:04.052Z,5.06
2023-01-11T00:40:33.349Z,5.25
2023-01-11T00:43:18.551Z,5.00
2023-01-11T00:46:03.885Z,5.07
2023-01-11T00:48:31.833Z,5.03
2023-01-11T00:50:59.886Z,5.16
2023-01-11T00:53:27.824Z,4.97
2023-01-11T00:55:57.125Z,5.15
2023-01-11T00:58:25.040Z,5.23
2023-01-11T01:00:53.081Z,5.18
2023-01-11T01:03:21.082Z,5.20
2023-01-11T01:05:49.129Z,5.09
2023-01-11T01:08:17.096Z,5.10
2023-01-11T01:10:44.999Z,5.12
2023-01-11T01:13:31.739Z,5.14
2023-01-11T01:15:59.779Z,5.14
2023-01-11T01:18:27.819Z,5.01
2023-01-11T01:20:55.777Z,5.04
2023-01-11T01:23:23.695Z,5.15
2023-01-11T01:25:51.707Z,5.14
2023-01-11T01:28:22.250Z,5.14
2023-01-11T01:30:53.350Z,5.11
2023-01-11T01:33:21.355Z,4.96
2023-01-11T01:35:49.341Z,5.07
2023-01-11T01:38:17.731Z,5.11
2023-01-11T01:40:48.051Z,5.19
2023-01-11T01:43:18.400Z,5.17
2023-01-11T01:45:50.163Z,5.15
2023-01-11T01:48:23.226Z,5.10
2023-01-11T01:50:54.799Z,5.10
2023-01-11T01:53:28.991Z,5.16
2023-01-11T01:56:02.675Z,5.34
2023-01-11T01:58:35.336Z,5.29
2023-01-11T02:01:18.777Z,5.28
2023-01-11T02:03:48.081Z,5.38
2023-01-11T02:06:16.380Z,5.41
2023-01-11T02:08:48.009Z,5.31
2023-01-11T02:11:30.950Z,5.25
2023-01-11T02:14:02.108Z,5.24
2023-01-11T02:16:31.506Z,5.23
2023-01-11T02:19:00.851Z,5.27
2023-01-11T02:21:42.650Z,5.26
2023-01-11T02:24:44.234Z,5.07
2023-01-11T02:27:30.115Z,5.00
2023-01-11T02:30:08.954Z,5.23
2023-01-11T02:32:49.770Z,5.26
2023-01-11T02:35:23.357Z,5.24
2023-01-11T02:38:00.353Z,5.10
2023-01-11T02:40:38.459Z,5.04
2023-01-11T02:43:34.356Z,5.07
2023-01-11T02:46:11.335Z,5.06
2023-01-11T02:48:48.519Z,4.97
2023-01-11T02:51:23.323Z,4.98
2023-01-11T02:53:56.594Z,4.98
2023-01-11T02:56:28.328Z,5.12
2023-01-11T02:58:58.794Z,5.03
2023-01-11T03:01:28.408Z,5.11
2023-01-11T03:03:57.235Z,5.03
2023-01-11T03:06:28.456Z,4.96
2023-01-11T03:09:13.725Z,5.10
2023-01-11T03:12:22.235Z,4.98
2023-01-11T03:15:00.510Z,5.00
2023-01-11T03:17:43.552Z,4.98
2023-01-11T03:20:21.560Z,5.03
2023-01-11T03:23:05.017Z,5.01
2023-01-11T03:25:43.809Z,5.03
2023-01-11T03:28:18.137Z,4.94
2023-01-11T03:30:52.180Z,5.01
2023-01-11T03:33:28.369Z,5.07
2023-01-11T03:36:02.353Z,5.09
2023-01-11T03:38:37.685Z,5.04
2023-01-11T03:41:09.439Z,5.01
2023-01-11T03:43:41.609Z,5.19
2023-01-11T03:46:14.843Z,5.20
2023-01-11T03:48:48.763Z,5.22
2023-01-11T03:51:22.006Z,5.38
2023-01-11T03:53:51.697Z,5.38
2023-01-11T03:56:26.321Z,5.42
2023-01-11T03:58:54.345Z,5.38
2023-01-11T04:01:22.787Z,5.43
2023-01-11T04:03:52.227Z,5.37
2023-01-11T04:06:21.044Z,5.24
2023-01-11T04:08:49.169Z,5.23
2023-01-11T04:11:17.145Z,5.21
2023-01-11T04:13:45.078Z,5.08
2023-01-11T04:16:12.998Z,5.03
2023-01-11T04:18:41.324Z,4.97
2023-01-11T04:21:10.609Z,4.95
2023-01-11T04:23:38.627Z,4.98
2023-01-11T04:26:07.092Z,5.00
2023-01-11T04:28:36.035Z,5.00
2023-01-11T04:31:04.088Z,5.05
2023-01-11T04:33:32.107Z,4.91
2023-01-11T04:36:00.010Z,4.91
2023-01-11T04:38:29.287Z,4.74
2023-01-11T04:41:17.184Z,4.76
2023-01-11T04:43:44.063Z,4.60
2023-01-11T04:46:12.062Z,4.65
2023-01-11T04:48:40.693Z,4.68
2023-01-11T04:51:09.062Z,4.64
2023-01-11T04:53:38.910Z,4.72
2023-01-11T04:56:08.298Z,4.63
2023-01-11T04:58:38.306Z,4.78
2023-01-11T05:01:10.408Z,4.61
2023-01-11T05:03:38.575Z,4.75
2023-01-11T05:06:07.124Z,4.72
2023-01-11T05:08:35.430Z,4.75
2023-01-11T05:11:07.427Z,4.75
2023-01-11T05:13:45.091Z,4.86
2023-01-11T05:16:15.770Z,4.82
2023-01-11T05:18:44.934Z,4.83
2023-01-11T05:21:14.764Z,4.96
2023-01-11T05:23:43.616Z,5.04
2023-01-11T05:26:15.259Z,4.83
2023-01-11T05:28:43.485Z,4.95
2023-01-11T05:31:11.562Z,4.84
2023-01-11T05:33:39.670Z,4.67
2023-01-11T05:36:10.321Z,4.76
2023-01-11T05:38:38.253Z,4.74
2023-01-11T05:41:08.217Z,4.65
2023-01-11T05:43:58.508Z,4.85
2023-01-11T05:46:26.254Z,4.72
2023-01-11T05:48:55.987Z,4.65
2023-01-11T05:51:24.068Z,4.64
2023-01-11T05:53:52.972Z,4.71
2023-01-11T05:56:21.247Z,4.78
2023-01-11T05:58:51.461Z,4.89
2023-01-11T06:01:20.590Z,4.97
2023-01-11T06:03:48.920Z,4.90
2023-01-11T06:06:18.760Z,4.94
2023-01-11T06:08:46.748Z,5.06
2023-01-11T06:11:15.855Z,4.95
2023-01-11T06:13:44.143Z,4.95
2023-01-11T06:16:15.500Z,4.81
2023-01-11T06:18:45.116Z,4.68
2023-01-11T06:21:14.141Z,4.71
2023-01-11T06:23:43.828Z,4.80
2023-01-11T06:26:14.130Z,4.74
2023-01-11T06:28:42.566Z,4.67
2023-01-11T06:31:11.072Z,4.73
2023-01-11T06:33:40.712Z,4.78
2023-01-11T06:36:10.936Z,4.52
2023-01-11T06:38:39.523Z,4.67
2023-01-11T06:41:09.415Z,4.72
2023-01-11T06:43:38.652Z,4.72
2023-01-11T06:46:06.984Z,4.77
2023-01-11T06:48:35.048Z,4.87
2023-01-11T06:51:04.407Z,4.83
2023-01-11T06:53:32.390Z,4.63
2023-01-11T06:56:00.550Z,4.67
2023-01-11T06:58:28.936Z,4.71
2023-01-11T07:00:58.209Z,4.63
2023-01-11T07:03:27.436Z,4.67
2023-01-11T07:05:57.361Z,4.86
2023-01-11T07:08:27.370Z,4.97
2023-01-11T07:10:55.935Z,4.88
2023-01-11T07:13:24.254Z,4.82
2023-01-11T07:15:54.298Z,4.83
2023-01-11T07:18:23.448Z,4.74
2023-01-11T07:20:52.328Z,4.97
2023-01-11T07:23:20.468Z,4.81
2023-01-11T07:25:50.693Z,4.96
2023-01-11T07:28:18.673Z,5.08
2023-01-11T07:31:02.648Z,5.19
2023-01-11T07:33:30.650Z,5.39
2023-01-11T07:36:00.807Z,5.47
2023-01-11T07:38:29.742Z,5.76
2023-01-11T07:40:59.163Z,5.78
2023-01-11T07:43:26.978Z,6.03
2023-01-11T07:45:55.149Z,6.14
2023-01-11T07:48:26.885Z,6.26
2023-01-11T07:50:55.536Z,6.20
2023-01-11T07:53:26.012Z,6.38
2023-01-11T07:55:55.565Z,6.55
2023-01-11T07:58:24.987Z,6.82
2023-01-11T08:00:53.046Z,7.00
2023-01-11T08:03:21.203Z,6.59
2023-01-11T08:05:51.592Z,7.04
2023-01-11T08:08:19.735Z,7.11
2023-01-11T08:11:07.773Z,7.17
2023-01-11T08:13:54.435Z,7.15
2023-01-11T08:16:22.578Z,7.14
2023-01-11T08:18:51.064Z,7.06
2023-01-11T08:21:21.227Z,7.31
2023-01-11T08:23:49.391Z,7.42
2023-01-11T08:26:18.065Z,7.46
2023-01-11T08:28:47.918Z,7.62
2023-01-11T08:31:15.966Z,7.69
2023-01-11T08:33:46.168Z,7.77
2023-01-11T08:36:14.594Z,7.47
2023-01-11T08:38:42.763Z,7.44
2023-01-11T08:41:11.782Z,7.65
2023-01-11T08:43:40.039Z,7.64
2023-01-11T08:46:09.978Z,7.56
2023-01-11T08:48:38.209Z,7.61
2023-01-11T08:51:06.378Z,7.18
2023-01-11T08:53:34.400Z,7.52
2023-01-11T08:56:02.499Z,7.46
2023-01-11T08:58:30.542Z,7.24
2023-01-11T09:00:59.387Z,7.35
2023-01-11T09:03:28.818Z,7.43
2023-01-11T09:05:57.596Z,7.58
2023-01-11T09:08:25.657Z,7.59
2023-01-11T09:10:53.668Z,7.65
2023-01-11T09:13:21.597Z,7.78
2023-01-11T09:15:49.664Z,7.29
2023-01-11T09:18:18.854Z,7.30
2023-01-11T09:20:48.116Z,7.39
2023-01-11T09:23:16.101Z,7.44
2023-01-11T09:25:44.070Z,7.53
2023-01-11T09:28:12.052Z,7.48
2023-01-11T09:30:40.039Z,7.65
2023-01-11T09:33:08.093Z,7.84
2023-01-11T09:35:38.554Z,7.91
2023-01-11T09:38:07.786Z,7.89
2023-01-11T09:40:46.355Z,7.78
2023-01-11T09:43:16.834Z,7.87
2023-01-11T09:45:46.904Z,7.52
2023-01-11T09:48:26.962Z,7.47
2023-01-11T09:50:55.007Z,7.88
2023-01-11T09:53:31.599Z,8.10
2023-01-11T09:56:02.513Z,8.34
2023-01-11T09:58:43.094Z,8.24
2023-01-11T10:01:18.781Z,8.44
2023-01-11T10:04:28.584Z,8.54
2023-01-11T10:07:15.563Z,8.45
2023-01-11T10:18:28.493Z,8.22
2023-01-11T10:19:19.105Z,8.12
2023-01-11T10:21:49.456Z,8.25
2023-01-11T10:24:26.138Z,8.31
2023-01-11T10:27:02.209Z,8.46
2023-01-11T10:29:49.890Z,8.59
2023-01-11T10:32:53.285Z,8.78
2023-01-11T10:35:45.551Z,8.67
2023-01-11T10:38:38.575Z,8.78
2023-01-11T10:41:20.162Z,8.83
2023-01-11T10:44:05.950Z,8.48
2023-01-11T10:46:39.705Z,8.79
2023-01-11T10:49:26.672Z,8.83
2023-01-11T10:52:00.123Z,9.08
2023-01-11T10:54:35.607Z,8.74
2023-01-11T10:57:14.117Z,8.85
2023-01-11T10:59:58.596Z,8.39
2023-01-11T11:02:44.895Z,8.09
2023-01-11T11:05:24.571Z,7.88
2023-01-11T11:07:59.024Z,8.03
2023-01-11T11:10:36.000Z,8.31
2023-01-11T11:13:11.770Z,8.33
2023-01-11T11:15:48.131Z,8.49
2023-01-11T11:18:16.163Z,7.97
2023-01-11T11:20:46.285Z,8.15
2023-01-11T11:23:18.157Z,8.20
2023-01-11T11:25:49.852Z,8.44
2023-01-11T11:28:29.840Z,8.44
2023-01-11T11:31:01.191Z,8.55
2023-01-11T11:33:35.137Z,8.38
2023-01-11T11:36:05.365Z,8.77
2023-01-11T11:38:36.768Z,8.86
2023-01-11T11:41:10.196Z,8.92
2023-01-11T11:43:39.554Z,8.92
2023-01-11T11:46:22.896Z,9.10
2023-01-11T11:49:11.897Z,9.41
2023-01-11T11:51:40.423Z,9.29
2023-01-11T11:54:17.647Z,9.24
2023-01-11T11:56:45.665Z,8.54
2023-01-11T11:59:17.170Z,8.60
2023-01-11T12:01:49.850Z,9.05
2023-01-11T12:04:22.065Z,9.14
2023-01-11T12:07:06.043Z,9.24
2023-01-11T12:09:35.970Z,9.06
2023-01-11T12:12:05.581Z,9.20
2023-01-11T12:14:35.353Z,9.21
2023-01-11T12:17:23.120Z,9.10
2023-01-11T12:19:51.067Z,9.25
2023-01-11T12:22:20.816Z,9.08
2023-01-11T12:24:49.944Z,9.08
2023-01-11T12:27:33.681Z,9.30
2023-01-11T12:30:14.433Z,9.35
2023-01-11T12:33:10.591Z,9.21
2023-01-11T12:35:48.777Z,8.86
2023-01-11T12:38:24.649Z,8.65
2023-01-11T12:41:08.752Z,8.61
2023-01-11T12:43:56.321Z,8.98
2023-01-11T12:46:38.508Z,9.06
2023-01-11T12:49:20.850Z,8.97
2023-01-11T12:52:04.949Z,9.21
2023-01-11T12:54:53.790Z,9.45
2023-01-11T12:57:30.119Z,9.19
2023-01-11T13:00:46.852Z,9.29
2023-01-11T13:03:35.416Z,9.42
2023-01-11T13:06:09.870Z,9.39
2023-01-11T13:08:53.224Z,9.39
2023-01-11T13:11:37.614Z,9.46
2023-01-11T13:14:25.647Z,8.91
2023-01-11T13:17:01.517Z,9.50
2023-01-11T13:19:37.591Z,9.26
2023-01-11T13:22:15.149Z,8.88
2023-01-11T13:24:47.041Z,8.94
2023-01-11T13:27:17.804Z,8.76
2023-01-11T13:29:48.404Z,8.73
2023-01-11T13:32:20.976Z,8.62
2023-01-11T13:34:53.477Z,8.46
2023-01-11T13:37:29.423Z,8.32
2023-01-11T13:40:05.955Z,8.35
2023-01-11T13:42:39.180Z,8.20
2023-01-11T13:45:17.587Z,8.19
2023-01-11T13:47:49.860Z,8.16
2023-01-11T13:50:24.778Z,8.24
2023-01-11T13:53:03.995Z,8.35
2023-01-11T13:55:41.809Z,8.07
2023-01-11T13:58:16.556Z,8.43
2023-01-11T14:00:50.821Z,8.13
2023-01-11T14:03:28.406Z,7.91
2023-01-11T14:06:10.599Z,8.18
2023-01-11T14:09:00.451Z,8.32
2023-01-11T14:11:40.043Z,8.29
2023-01-11T14:14:32.993Z,8.15
2023-01-11T14:17:28.708Z,8.25
2023-01-11T14:20:07.306Z,8.35
2023-01-11T14:22:42.634Z,8.38
2023-01-11T14:25:21.952Z,8.28
2023-01-11T14:28:24.543Z,8.39
2023-01-11T14:31:17.804Z,8.46
2023-01-11T14:34:11.895Z,8.43
2023-01-11T14:37:05.499Z,8.53
2023-01-11T14:39:57.703Z,8.43
2023-01-11T14:42:55.443Z,8.60
2023-01-11T14:45:32.979Z,8.57
2023-01-11T14:48:23.295Z,8.57
2023-01-11T14:51:33.171Z,8.53
2023-01-11T14:54:05.666Z,8.50
2023-01-11T14:56:36.938Z,8.50
2023-01-11T14:59:08.372Z,8.43
2023-01-11T15:02:23.712Z,8.31
2023-01-11T15:05:12.972Z,8.21
2023-01-11T15:07:43.853Z,8.20
2023-01-11T15:10:41.998Z,8.14
2023-01-11T15:13:16.008Z,8.01
2023-01-11T15:16:02.903Z,8.00
2023-01-11T15:18:31.501Z,7.99
2023-01-11T15:21:04.740Z,7.92
2023-01-11T15:23:36.855Z,7.97
2023-01-11T15:26:08.027Z,7.95
2023-01-11T15:28:45.354Z,7.64
2023-01-11T15:31:39.035Z,7.76
2023-01-11T15:34:22.893Z,7.78
2023-01-11T15:37:13.029Z,7.89
2023-01-11T15:39:46.608Z,7.65
2023-01-11T15:42:37.066Z,7.75
2023-01-11T15:46:00.333Z,7.51
2023-01-11T15:48:45.297Z,7.22
2023-01-11T15:51:38.454Z,7.30
2023-01-11T15:54:31.592Z,7.34
2023-01-11T15:57:31.489Z,7.41
2023-01-11T16:00:41.424Z,6.99
2023-01-11T16:03:42.360Z,7.02
2023-01-11T16:06:18.879Z,7.18
2023-01-11T16:08:58.147Z,6.72
2023-01-11T16:11:37.670Z,6.86
2023-01-11T16:14:30.912Z,6.89
2023-01-11T16:16:59.559Z,6.86
2023-01-11T16:19:32.673Z,6.87
2023-01-11T16:22:05.597Z,6.84
2023-01-11T16:24:38.889Z,6.82
2023-01-11T16:27:09.297Z,7.01
2023-01-11T16:29:39.225Z,6.85
2023-01-11T16:32:09.341Z,6.73
2023-01-11T16:34:43.305Z,6.77
2023-01-11T16:37:24.022Z,6.99
2023-01-11T16:39:56.903Z,7.07
2023-01-11T16:42:27.106Z,7.19
2023-01-11T16:44:59.937Z,7.12
2023-01-11T16:47:27.909Z,7.14
2023-01-11T16:50:22.228Z,7.11
2023-01-11T16:52:53.331Z,7.02
2023-01-11T16:55:30.269Z,6.70
2023-01-11T16:58:01.453Z,7.09
2023-01-11T17:00:35.777Z,7.14
2023-01-11T17:03:17.623Z,7.16
2023-01-11T17:05:57.693Z,7.23
2023-01-11T17:08:28.087Z,6.78
2023-01-11T17:10:58.628Z,7.07
2023-01-11T17:13:54.626Z,6.93
2023-01-11T17:16:25.467Z,7.00
2023-01-11T17:18:54.537Z,7.11
2023-01-11T17:21:26.007Z,7.00
2023-01-11T17:23:59.254Z,7.17
2023-01-11T17:26:30.221Z,7.18
2023-01-11T17:29:00.857Z,7.00
2023-01-11T17:31:32.108Z,6.82
2023-01-11T17:34:05.460Z,6.94
2023-01-11T17:36:35.222Z,6.95
2023-01-11T17:39:04.714Z,6.76
2023-01-11T17:41:50.309Z,6.71
2023-01-11T17:44:38.000Z,6.86
2023-01-11T17:47:09.185Z,6.94
2023-01-11T17:49:39.157Z,6.54
2023-01-11T17:52:21.478Z,6.94
2023-01-11T17:55:01.624Z,6.94
2023-01-11T17:57:29.864Z,6.92
2023-01-11T18:00:18.580Z,6.85
2023-01-11T18:02:47.732Z,6.87
2023-01-11T18:05:17.848Z,6.71
2023-01-11T18:07:50.297Z,6.86
2023-01-11T18:10:21.225Z,6.90
2023-01-11T18:12:50.933Z,6.69
2023-01-11T18:15:21.917Z,6.75
2023-01-11T18:17:53.230Z,6.70
2023-01-11T18:20:42.753Z,6.70
2023-01-11T18:23:23.097Z,6.43
2023-01-11T18:25:51.400Z,6.58
2023-01-11T18:28:38.070Z,6.60
2023-01-11T18:31:06.303Z,6.62
2023-01-11T18:33:35.345Z,6.61
2023-01-11T18:36:05.148Z,6.82
2023-01-11T18:38:36.478Z,6.73
2023-01-11T18:41:21.996Z,6.66
2023-01-11T18:43:50.142Z,6.71
2023-01-11T18:46:18.295Z,6.61
2023-01-11T18:48:46.377Z,6.61
2023-01-11T18:51:17.785Z,6.56
2023-01-11T18:53:47.243Z,6.46
2023-01-11T18:56:16.432Z,6.48
2023-01-11T18:58:44.599Z,6.44
2023-01-11T19:01:12.787Z,6.38
2023-01-11T19:03:45.988Z,6.31
2023-01-11T19:06:14.339Z,6.13
2023-01-11T19:08:42.702Z,6.15
2023-01-11T19:11:13.902Z,6.15
2023-01-11T19:13:42.104Z,6.27
2023-01-11T19:16:10.671Z,6.18
2023-01-11T19:18:38.790Z,6.09
2023-01-11T19:21:09.253Z,6.05
2023-01-11T19:23:37.479Z,5.88
2023-01-11T19:26:05.936Z,5.86
2023-01-11T19:28:35.386Z,6.00
2023-01-11T19:31:07.860Z,6.00
2023-01-11T19:33:36.070Z,6.04
2023-01-11T19:36:07.034Z,5.95
2023-01-11T19:38:35.187Z,5.97
2023-01-11T19:41:06.187Z,5.87
2023-01-11T19:43:35.772Z,5.96
2023-01-11T19:46:04.273Z,6.03
2023-01-11T19:48:33.230Z,5.76
2023-01-11T19:51:05.539Z,5.71
2023-01-11T19:53:33.902Z,5.88
2023-01-11T19:56:02.414Z,5.88
2023-01-11T19:58:30.517Z,5.91
2023-01-11T20:01:00.139Z,5.89
2023-01-11T20:03:30.215Z,5.90
2023-01-11T20:06:07.634Z,5.62
2023-01-11T20:08:38.433Z,5.68
2023-01-11T20:11:07.356Z,5.59
2023-01-11T20:13:35.521Z,5.80
2023-01-11T20:16:08.042Z,5.71
2023-01-11T20:18:35.951Z,5.78
2023-01-11T20:21:04.038Z,5.81
2023-01-11T20:23:32.249Z,5.78
2023-01-11T20:26:00.542Z,5.81
2023-01-11T20:28:29.161Z,5.78
2023-01-11T20:31:00.684Z,5.76
2023-01-11T20:33:31.285Z,5.78
2023-01-11T20:35:59.221Z,5.86
2023-01-11T20:38:27.219Z,5.87
2023-01-11T20:40:55.238Z,5.96
2023-01-11T20:43:23.292Z,5.88
2023-01-11T20:45:56.463Z,5.68
2023-01-11T20:48:24.422Z,5.87
2023-01-11T20:50:53.712Z,5.86
2023-01-11T20:53:21.631Z,5.76
2023-01-11T20:55:49.598Z,5.66
2023-01-11T20:58:17.639Z,5.63
2023-01-11T21:00:48.130Z,5.69
2023-01-11T21:03:16.748Z,5.72
2023-01-11T21:05:44.667Z,5.83
2023-01-11T21:08:14.018Z,5.72
2023-01-11T21:10:42.050Z,5.67
2023-01-11T21:13:10.043Z,5.59
2023-01-11T21:15:39.020Z,5.65
2023-01-11T21:18:07.521Z,5.51
2023-01-11T21:20:35.948Z,5.64
2023-01-11T21:23:04.010Z,5.61
2023-01-11T21:25:34.997Z,5.71
2023-01-11T21:28:03.987Z,5.65
2023-01-11T21:30:32.101Z,5.72
2023-01-11T21:33:00.108Z,5.57
2023-01-11T21:35:28.273Z,5.54
2023-01-11T21:37:56.275Z,5.52
2023-01-11T21:40:24.212Z,5.55
2023-01-11T21:42:53.460Z,5.44
2023-01-11T21:45:21.384Z,5.60
2023-01-11T21:47:49.317Z,5.67
2023-01-11T21:50:17.872Z,5.70
2023-01-11T21:52:45.875Z,5.73
2023-01-11T21:55:14.118Z,5.62
2023-01-11T21:57:42.090Z,5.60
2023-01-11T22:00:14.640Z,5.48
2023-01-11T22:02:42.588Z,5.44
2023-01-11T22:05:11.032Z,5.70
2023-01-11T22:07:40.941Z,5.77
2023-01-11T22:10:09.868Z,5.59
2023-01-11T22:12:37.775Z,5.63
2023-01-11T22:15:06.264Z,5.63
2023-01-11T22:17:35.823Z,5.94
2023-01-11T22:20:03.873Z,5.92
2023-01-11T22:22:32.133Z,5.91
2023-01-11T22:25:00.205Z,5.34
2023-01-11T22:27:28.126Z,5.92
2023-01-11T22:29:56.096Z,5.85
2023-01-11T22:32:24.141Z,5.87
2023-01-11T22:34:53.485Z,5.78
2023-01-11T22:37:21.481Z,5.63
2023-01-11T22:39:49.719Z,5.86
2023-01-11T22:42:17.618Z,5.78
2023-01-11T22:44:45.627Z,5.83
2023-01-11T22:47:13.555Z,5.85
2023-01-11T22:49:41.475Z,5.88
2023-01-11T22:52:10.825Z,5.88
2023-01-11T22:54:38.797Z,5.88
2023-01-11T22:57:06.729Z,5.88
2023-01-11T22:59:34.660Z,5.85
2023-01-11T23:02:02.616Z,5.88
2023-01-11T23:04:30.470Z,5.88
2023-01-11T23:06:58.432Z,5.75
2023-01-11T23:09:28.216Z,5.77
2023-01-11T23:12:13.473Z,5.83
2023-01-11T23:14:41.409Z,5.76
2023-01-11T23:17:09.326Z,5.93
2023-01-11T23:19:39.797Z,5.68
2023-01-11T23:22:08.677Z,5.84
2023-01-11T23:24:39.041Z,5.69
2023-01-11T23:27:07.158Z,5.75
2023-01-11T23:29:35.607Z,5.74
2023-01-11T23:32:03.789Z,5.79
2023-01-11T23:34:31.913Z,5.31
2023-01-11T23:36:59.880Z,6.01
2023-01-11T23:39:28.010Z,5.75
2023-01-11T23:42:15.019Z,5.80
2023-01-11T23:44:42.999Z,5.77
2023-01-11T23:47:29.859Z,5.84
2023-01-11T23:50:00.356Z,5.89
2023-01-11T23:52:30.370Z,5.95
2023-01-11T23:54:58.735Z,6.01
2023-01-11T23:57:28.346Z,5.89
2023-01-11T23:59:56.613Z,5.93
